sensor_id;sensor_type;location;lat;lon;timestamp;P1;durP1;ratioP1;P2;durP2;ratioP2
9117;SDS011;4594;50.994;7.126;2022-08-25T00:01:50;1.63;;;1.50;;
9117;SDS011;4594;50.994;7.126;2022-08-25T00:04:18;2.00;;;1.60;;
9117;SDS011;4594;50.994;7.126;2022-08-25T00:06:46;2.60;;;1.80;;
9117;SDS011;4594;50.994;7.126;2022-08-25T00:09:13;1.77;;;1.60;;
9117;SDS011;4594;50.994;7.126;2022-08-25T00:11:43;3.03;;;1.83;;
9117;SDS011;4594;50.994;7.126;2022-08-25T00:14:12;4.23;;;1.57;;
9117;SDS011;4594;50.994;7.126;2022-08-25T00:16:44;3.03;;;1.57;;
9117;SDS011;4594;50.994;7.126;2022-08-25T00:19:12;1.60;;;1.50;;
9117;SDS011;4594;50.994;7.126;2022-08-25T00:21:44;2.00;;;1.43;;
9117;SDS011;4594;50.994;7.126;2022-08-25T00:24:11;3.23;;;1.53;;
9117;SDS011;4594;50.994;7.126;2022-08-25T00:26:43;1.87;;;1.53;;
9117;SDS011;4594;50.994;7.126;2022-08-25T00:29:12;1.90;;;1.80;;
9117;SDS011;4594;50.994;7.126;2022-08-25T00:31:39;1.30;;;1.30;;
9117;SDS011;4594;50.994;7.126;2022-08-25T00:34:16;3.80;;;1.80;;
9117;SDS011;4594;50.994;7.126;2022-08-25T00:36:47;1.73;;;1.63;;
9117;SDS011;4594;50.994;7.126;2022-08-25T00:39:15;3.87;;;1.60;;
9117;SDS011;4594;50.994;7.126;2022-08-25T00:41:45;1.70;;;1.60;;
9117;SDS011;4594;50.994;7.126;2022-08-25T00:44:12;1.50;;;1.40;;
9117;SDS011;4594;50.994;7.126;2022-08-25T00:46:44;1.73;;;1.57;;
9117;SDS011;4594;50.994;7.126;2022-08-25T00:49:20;3.57;;;1.70;;
9117;SDS011;4594;50.994;7.126;2022-08-25T00:52:15;3.13;;;1.70;;
9117;SDS011;4594;50.994;7.126;2022-08-25T00:54:58;2.63;;;1.63;;
9117;SDS011;4594;50.994;7.126;2022-08-25T00:57:32;3.37;;;1.60;;
9117;SDS011;4594;50.994;7.126;2022-08-25T01:00:07;3.53;;;1.93;;
9117;SDS011;4594;50.994;7.126;2022-08-25T01:02:57;2.23;;;1.83;;
9117;SDS011;4594;50.994;7.126;2022-08-25T01:05:24;2.37;;;1.90;;
9117;SDS011;4594;50.994;7.126;2022-08-25T01:07:52;1.77;;;1.67;;
9117;SDS011;4594;50.994;7.126;2022-08-25T01:10:20;3.27;;;1.60;;
9117;SDS011;4594;50.994;7.126;2022-08-25T01:12:48;5.40;;;2.00;;
9117;SDS011;4594;50.994;7.126;2022-08-25T01:15:16;2.60;;;1.83;;
9117;SDS011;4594;50.994;7.126;2022-08-25T01:17:49;2.07;;;1.57;;
9117;SDS011;4594;50.994;7.126;2022-08-25T01:20:18;3.73;;;1.80;;
9117;SDS011;4594;50.994;7.126;2022-08-25T01:22:48;1.70;;;1.70;;
9117;SDS011;4594;50.994;7.126;2022-08-25T01:25:25;1.70;;;1.63;;
9117;SDS011;4594;50.994;7.126;2022-08-25T01:28:06;1.87;;;1.67;;
9117;SDS011;4594;50.994;7.126;2022-08-25T01:30:32;1.70;;;1.67;;
9117;SDS011;4594;50.994;7.126;2022-08-25T01:33:03;3.73;;;1.87;;
9117;SDS011;4594;50.994;7.126;2022-08-25T01:35:31;3.90;;;2.53;;
9117;SDS011;4594;50.994;7.126;2022-08-25T01:37:59;5.00;;;1.73;;
9117;SDS011;4594;50.994;7.126;2022-08-25T01:40:26;2.47;;;1.77;;
9117;SDS011;4594;50.994;7.126;2022-08-25T01:42:56;1.93;;;1.67;;
9117;SDS011;4594;50.994;7.126;2022-08-25T01:45:32;2.13;;;2.00;;
9117;SDS011;4594;50.994;7.126;2022-08-25T01:47:59;2.70;;;1.63;;
9117;SDS011;4594;50.994;7.126;2022-08-25T01:50:25;2.00;;;1.90;;
9117;SDS011;4594;50.994;7.126;2022-08-25T01:52:58;2.07;;;1.80;;
9117;SDS011;4594;50.994;7.126;2022-08-25T01:55:27;2.00;;;1.90;;
9117;SDS011;4594;50.994;7.126;2022-08-25T01:57:54;1.90;;;1.80;;
9117;SDS011;4594;50.994;7.126;2022-08-25T02:00:20;1.80;;;1.70;;
9117;SDS011;4594;50.994;7.126;2022-08-25T02:02:48;2.20;;;2.10;;
9117;SDS011;4594;50.994;7.126;2022-08-25T02:05:14;2.00;;;1.70;;
9117;SDS011;4594;50.994;7.126;2022-08-25T02:07:41;3.90;;;2.13;;
9117;SDS011;4594;50.994;7.126;2022-08-25T02:10:09;2.77;;;2.17;;
9117;SDS011;4594;50.994;7.126;2022-08-25T02:12:37;1.80;;;1.70;;
9117;SDS011;4594;50.994;7.126;2022-08-25T02:15:06;2.80;;;1.70;;
9117;SDS011;4594;50.994;7.126;2022-08-25T02:17:33;2.07;;;1.87;;
9117;SDS011;4594;50.994;7.126;2022-08-25T02:20:01;2.33;;;2.20;;
9117;SDS011;4594;50.994;7.126;2022-08-25T02:22:30;2.67;;;2.00;;
9117;SDS011;4594;50.994;7.126;2022-08-25T02:24:55;3.90;;;1.80;;
9117;SDS011;4594;50.994;7.126;2022-08-25T02:27:21;2.57;;;2.03;;
9117;SDS011;4594;50.994;7.126;2022-08-25T02:29:48;2.03;;;1.93;;
9117;SDS011;4594;50.994;7.126;2022-08-25T02:32:13;2.07;;;1.87;;
9117;SDS011;4594;50.994;7.126;2022-08-25T02:34:39;2.53;;;1.83;;
9117;SDS011;4594;50.994;7.126;2022-08-25T02:37:05;4.77;;;2.17;;
9117;SDS011;4594;50.994;7.126;2022-08-25T02:39:32;2.43;;;2.20;;
9117;SDS011;4594;50.994;7.126;2022-08-25T02:41:58;3.17;;;1.70;;
9117;SDS011;4594;50.994;7.126;2022-08-25T02:44:24;1.87;;;1.77;;
9117;SDS011;4594;50.994;7.126;2022-08-25T02:46:49;4.20;;;2.27;;
9117;SDS011;4594;50.994;7.126;2022-08-25T02:49:15;2.40;;;2.00;;
9117;SDS011;4594;50.994;7.126;2022-08-25T02:51:41;3.07;;;1.90;;
9117;SDS011;4594;50.994;7.126;2022-08-25T02:54:06;7.37;;;2.17;;
9117;SDS011;4594;50.994;7.126;2022-08-25T02:56:33;2.33;;;2.13;;
9117;SDS011;4594;50.994;7.126;2022-08-25T02:58:59;4.33;;;2.33;;
9117;SDS011;4594;50.994;7.126;2022-08-25T03:01:26;3.47;;;1.87;;
9117;SDS011;4594;50.994;7.126;2022-08-25T03:03:53;5.97;;;2.20;;
9117;SDS011;4594;50.994;7.126;2022-08-25T03:06:19;2.50;;;2.30;;
9117;SDS011;4594;50.994;7.126;2022-08-25T03:08:48;1.90;;;1.80;;
9117;SDS011;4594;50.994;7.126;2022-08-25T03:11:14;2.00;;;1.90;;
9117;SDS011;4594;50.994;7.126;2022-08-25T03:13:40;2.37;;;2.20;;
9117;SDS011;4594;50.994;7.126;2022-08-25T03:16:06;1.87;;;1.77;;
9117;SDS011;4594;50.994;7.126;2022-08-25T03:18:34;3.93;;;1.90;;
9117;SDS011;4594;50.994;7.126;2022-08-25T03:21:01;2.90;;;2.23;;
9117;SDS011;4594;50.994;7.126;2022-08-25T03:23:27;1.97;;;1.87;;
9117;SDS011;4594;50.994;7.126;2022-08-25T03:25:53;2.23;;;2.10;;
9117;SDS011;4594;50.994;7.126;2022-08-25T03:28:38;2.30;;;2.20;;
9117;SDS011;4594;50.994;7.126;2022-08-25T03:31:05;3.37;;;2.30;;
9117;SDS011;4594;50.994;7.126;2022-08-25T03:33:32;7.40;;;2.70;;
9117;SDS011;4594;50.994;7.126;2022-08-25T03:35:58;2.10;;;2.00;;
9117;SDS011;4594;50.994;7.126;2022-08-25T03:38:24;2.00;;;1.90;;
9117;SDS011;4594;50.994;7.126;2022-08-25T03:40:51;2.50;;;2.27;;
9117;SDS011;4594;50.994;7.126;2022-08-25T03:43:18;3.23;;;2.20;;
9117;SDS011;4594;50.994;7.126;2022-08-25T03:45:45;2.10;;;2.00;;
9117;SDS011;4594;50.994;7.126;2022-08-25T03:48:14;2.37;;;2.27;;
9117;SDS011;4594;50.994;7.126;2022-08-25T03:50:45;2.37;;;2.27;;
9117;SDS011;4594;50.994;7.126;2022-08-25T03:53:14;3.53;;;2.33;;
9117;SDS011;4594;50.994;7.126;2022-08-25T03:55:40;2.30;;;2.20;;
9117;SDS011;4594;50.994;7.126;2022-08-25T03:58:06;2.43;;;2.30;;
9117;SDS011;4594;50.994;7.126;2022-08-25T04:00:31;2.40;;;2.30;;
9117;SDS011;4594;50.994;7.126;2022-08-25T04:02:57;2.50;;;2.30;;
9117;SDS011;4594;50.994;7.126;2022-08-25T04:05:23;2.50;;;2.30;;
9117;SDS011;4594;50.994;7.126;2022-08-25T04:07:48;3.00;;;2.33;;
9117;SDS011;4594;50.994;7.126;2022-08-25T04:10:14;2.47;;;2.27;;
9117;SDS011;4594;50.994;7.126;2022-08-25T04:12:40;2.50;;;2.40;;
9117;SDS011;4594;50.994;7.126;2022-08-25T04:15:06;4.07;;;2.50;;
9117;SDS011;4594;50.994;7.126;2022-08-25T04:17:35;2.77;;;2.50;;
9117;SDS011;4594;50.994;7.126;2022-08-25T04:20:04;2.60;;;2.40;;
9117;SDS011;4594;50.994;7.126;2022-08-25T04:22:33;2.60;;;2.33;;
9117;SDS011;4594;50.994;7.126;2022-08-25T04:25:00;2.63;;;2.47;;
9117;SDS011;4594;50.994;7.126;2022-08-25T04:27:26;3.10;;;2.90;;
9117;SDS011;4594;50.994;7.126;2022-08-25T04:29:52;3.30;;;2.90;;
9117;SDS011;4594;50.994;7.126;2022-08-25T04:32:17;2.73;;;2.63;;
9117;SDS011;4594;50.994;7.126;2022-08-25T04:34:43;3.00;;;2.80;;
9117;SDS011;4594;50.994;7.126;2022-08-25T04:37:09;2.20;;;2.10;;
9117;SDS011;4594;50.994;7.126;2022-08-25T04:39:36;2.43;;;2.33;;
9117;SDS011;4594;50.994;7.126;2022-08-25T04:42:01;2.73;;;2.50;;
9117;SDS011;4594;50.994;7.126;2022-08-25T04:44:28;2.67;;;2.57;;
9117;SDS011;4594;50.994;7.126;2022-08-25T04:46:55;3.00;;;2.80;;
9117;SDS011;4594;50.994;7.126;2022-08-25T04:49:22;3.97;;;2.67;;
9117;SDS011;4594;50.994;7.126;2022-08-25T04:51:48;2.90;;;2.60;;
9117;SDS011;4594;50.994;7.126;2022-08-25T04:54:15;2.77;;;2.57;;
9117;SDS011;4594;50.994;7.126;2022-08-25T04:56:45;2.73;;;2.53;;
9117;SDS011;4594;50.994;7.126;2022-08-25T04:59:14;3.30;;;3.00;;
9117;SDS011;4594;50.994;7.126;2022-08-25T05:01:41;5.33;;;2.83;;
9117;SDS011;4594;50.994;7.126;2022-08-25T05:04:10;3.13;;;2.73;;
9117;SDS011;4594;50.994;7.126;2022-08-25T05:06:39;2.57;;;2.37;;
9117;SDS011;4594;50.994;7.126;2022-08-25T05:09:06;4.53;;;2.70;;
9117;SDS011;4594;50.994;7.126;2022-08-25T05:11:31;4.93;;;2.50;;
9117;SDS011;4594;50.994;7.126;2022-08-25T05:13:58;2.67;;;2.57;;
9117;SDS011;4594;50.994;7.126;2022-08-25T05:16:25;2.47;;;2.37;;
9117;SDS011;4594;50.994;7.126;2022-08-25T05:18:52;4.30;;;2.70;;
9117;SDS011;4594;50.994;7.126;2022-08-25T05:21:20;4.20;;;2.80;;
9117;SDS011;4594;50.994;7.126;2022-08-25T05:23:49;3.07;;;2.23;;
9117;SDS011;4594;50.994;7.126;2022-08-25T05:26:22;3.57;;;2.63;;
9117;SDS011;4594;50.994;7.126;2022-08-25T05:28:51;3.20;;;2.90;;
9117;SDS011;4594;50.994;7.126;2022-08-25T05:31:19;2.73;;;2.53;;
9117;SDS011;4594;50.994;7.126;2022-08-25T05:33:47;2.87;;;2.67;;
9117;SDS011;4594;50.994;7.126;2022-08-25T05:36:14;3.90;;;3.10;;
9117;SDS011;4594;50.994;7.126;2022-08-25T05:38:41;2.80;;;2.60;;
9117;SDS011;4594;50.994;7.126;2022-08-25T05:41:08;3.40;;;3.10;;
9117;SDS011;4594;50.994;7.126;2022-08-25T05:43:38;3.97;;;2.83;;
9117;SDS011;4594;50.994;7.126;2022-08-25T05:46:06;5.83;;;3.07;;
9117;SDS011;4594;50.994;7.126;2022-08-25T05:48:33;4.33;;;2.57;;
9117;SDS011;4594;50.994;7.126;2022-08-25T05:51:00;3.10;;;2.80;;
9117;SDS011;4594;50.994;7.126;2022-08-25T05:53:29;3.27;;;2.90;;
9117;SDS011;4594;50.994;7.126;2022-08-25T05:55:55;6.23;;;2.90;;
9117;SDS011;4594;50.994;7.126;2022-08-25T05:58:24;3.07;;;2.87;;
9117;SDS011;4594;50.994;7.126;2022-08-25T06:00:55;3.47;;;3.17;;
9117;SDS011;4594;50.994;7.126;2022-08-25T06:03:43;2.90;;;2.57;;
9117;SDS011;4594;50.994;7.126;2022-08-25T06:06:11;2.90;;;2.70;;
9117;SDS011;4594;50.994;7.126;2022-08-25T06:08:37;3.43;;;2.77;;
9117;SDS011;4594;50.994;7.126;2022-08-25T06:11:03;2.90;;;2.70;;
9117;SDS011;4594;50.994;7.126;2022-08-25T06:13:29;2.57;;;2.37;;
9117;SDS011;4594;50.994;7.126;2022-08-25T06:15:59;3.37;;;3.07;;
9117;SDS011;4594;50.994;7.126;2022-08-25T06:18:25;2.37;;;2.37;;
9117;SDS011;4594;50.994;7.126;2022-08-25T06:20:51;3.13;;;2.50;;
9117;SDS011;4594;50.994;7.126;2022-08-25T06:23:17;2.43;;;2.30;;
9117;SDS011;4594;50.994;7.126;2022-08-25T06:25:49;5.20;;;2.63;;
9117;SDS011;4594;50.994;7.126;2022-08-25T06:28:17;2.53;;;2.43;;
9117;SDS011;4594;50.994;7.126;2022-08-25T06:30:44;2.63;;;2.43;;
9117;SDS011;4594;50.994;7.126;2022-08-25T06:33:10;2.67;;;2.47;;
9117;SDS011;4594;50.994;7.126;2022-08-25T06:35:39;5.37;;;2.67;;
9117;SDS011;4594;50.994;7.126;2022-08-25T06:38:07;3.10;;;2.80;;
9117;SDS011;4594;50.994;7.126;2022-08-25T06:40:33;3.10;;;2.90;;
9117;SDS011;4594;50.994;7.126;2022-08-25T06:42:58;2.97;;;2.70;;
9117;SDS011;4594;50.994;7.126;2022-08-25T06:45:24;2.67;;;2.33;;
9117;SDS011;4594;50.994;7.126;2022-08-25T06:47:50;3.23;;;2.27;;
9117;SDS011;4594;50.994;7.126;2022-08-25T06:50:16;2.80;;;2.63;;
9117;SDS011;4594;50.994;7.126;2022-08-25T06:52:42;6.13;;;2.77;;
9117;SDS011;4594;50.994;7.126;2022-08-25T06:55:08;2.70;;;2.50;;
9117;SDS011;4594;50.994;7.126;2022-08-25T06:57:34;4.73;;;2.53;;
9117;SDS011;4594;50.994;7.126;2022-08-25T07:00:01;2.93;;;2.50;;
9117;SDS011;4594;50.994;7.126;2022-08-25T07:02:31;2.63;;;2.43;;
9117;SDS011;4594;50.994;7.126;2022-08-25T07:04:57;5.53;;;2.40;;
9117;SDS011;4594;50.994;7.126;2022-08-25T07:07:22;3.10;;;2.40;;
9117;SDS011;4594;50.994;7.126;2022-08-25T07:09:48;2.43;;;2.20;;
9117;SDS011;4594;50.994;7.126;2022-08-25T07:12:14;5.70;;;2.50;;
9117;SDS011;4594;50.994;7.126;2022-08-25T07:14:39;3.63;;;2.40;;
9117;SDS011;4594;50.994;7.126;2022-08-25T07:17:05;2.00;;;1.90;;
9117;SDS011;4594;50.994;7.126;2022-08-25T07:19:31;4.40;;;2.50;;
9117;SDS011;4594;50.994;7.126;2022-08-25T07:21:56;3.23;;;2.07;;
9117;SDS011;4594;50.994;7.126;2022-08-25T07:24:22;2.50;;;2.40;;
9117;SDS011;4594;50.994;7.126;2022-08-25T07:26:48;2.60;;;2.40;;
9117;SDS011;4594;50.994;7.126;2022-08-25T07:29:19;2.50;;;2.30;;
9117;SDS011;4594;50.994;7.126;2022-08-25T07:31:48;2.30;;;2.10;;
9117;SDS011;4594;50.994;7.126;2022-08-25T07:34:14;2.33;;;2.23;;
9117;SDS011;4594;50.994;7.126;2022-08-25T07:36:59;5.70;;;2.17;;
9117;SDS011;4594;50.994;7.126;2022-08-25T07:39:28;3.40;;;2.23;;
9117;SDS011;4594;50.994;7.126;2022-08-25T07:41:55;2.40;;;2.30;;
9117;SDS011;4594;50.994;7.126;2022-08-25T07:44:22;2.50;;;2.30;;
9117;SDS011;4594;50.994;7.126;2022-08-25T07:46:49;2.60;;;2.40;;
9117;SDS011;4594;50.994;7.126;2022-08-25T07:49:16;2.77;;;2.23;;
9117;SDS011;4594;50.994;7.126;2022-08-25T07:51:47;2.00;;;1.90;;
9117;SDS011;4594;50.994;7.126;2022-08-25T07:54:13;2.53;;;2.40;;
9117;SDS011;4594;50.994;7.126;2022-08-25T07:56:39;2.53;;;2.33;;
9117;SDS011;4594;50.994;7.126;2022-08-25T07:59:07;2.90;;;2.30;;
9117;SDS011;4594;50.994;7.126;2022-08-25T08:01:34;2.20;;;2.10;;
9117;SDS011;4594;50.994;7.126;2022-08-25T08:04:00;4.50;;;2.53;;
9117;SDS011;4594;50.994;7.126;2022-08-25T08:06:26;2.57;;;2.10;;
9117;SDS011;4594;50.994;7.126;2022-08-25T08:08:52;2.10;;;1.90;;
9117;SDS011;4594;50.994;7.126;2022-08-25T08:11:21;3.20;;;1.90;;
9117;SDS011;4594;50.994;7.126;2022-08-25T08:13:51;2.10;;;2.00;;
9117;SDS011;4594;50.994;7.126;2022-08-25T08:16:20;1.90;;;1.80;;
9117;SDS011;4594;50.994;7.126;2022-08-25T08:18:49;1.88;;;1.77;;
9117;SDS011;4594;50.994;7.126;2022-08-25T08:21:17;1.90;;;1.77;;
9117;SDS011;4594;50.994;7.126;2022-08-25T08:23:53;2.00;;;1.90;;
9117;SDS011;4594;50.994;7.126;2022-08-25T08:26:20;2.50;;;2.30;;
9117;SDS011;4594;50.994;7.126;2022-08-25T08:28:47;1.63;;;1.60;;
9117;SDS011;4594;50.994;7.126;2022-08-25T08:31:13;2.38;;;2.00;;
9117;SDS011;4594;50.994;7.126;2022-08-25T08:33:39;3.15;;;2.00;;
9117;SDS011;4594;50.994;7.126;2022-08-25T08:36:07;2.58;;;2.05;;
9117;SDS011;4594;50.994;7.126;2022-08-25T08:38:36;3.50;;;2.30;;
9117;SDS011;4594;50.994;7.126;2022-08-25T08:41:15;1.77;;;1.70;;
9117;SDS011;4594;50.994;7.126;2022-08-25T08:44:25;1.70;;;1.65;;
9117;SDS011;4594;50.994;7.126;2022-08-25T08:47:22;1.48;;;1.48;;
9117;SDS011;4594;50.994;7.126;2022-08-25T08:50:28;1.85;;;1.67;;
9117;SDS011;4594;50.994;7.126;2022-08-25T08:53:18;1.60;;;1.50;;
9117;SDS011;4594;50.994;7.126;2022-08-25T08:56:37;1.73;;;1.73;;
9117;SDS011;4594;50.994;7.126;2022-08-25T08:59:30;1.95;;;1.85;;
9117;SDS011;4594;50.994;7.126;2022-08-25T09:02:37;1.67;;;1.58;;
9117;SDS011;4594;50.994;7.126;2022-08-25T09:05:14;4.78;;;2.03;;
9117;SDS011;4594;50.994;7.126;2022-08-25T09:07:48;1.92;;;1.80;;
9117;SDS011;4594;50.994;7.126;2022-08-25T09:10:19;3.45;;;1.60;;
9117;SDS011;4594;50.994;7.126;2022-08-25T09:12:53;1.80;;;1.70;;
9117;SDS011;4594;50.994;7.126;2022-08-25T09:19:00;1.63;;;1.52;;
9117;SDS011;4594;50.994;7.126;2022-08-25T09:21:56;2.08;;;1.50;;
9117;SDS011;4594;50.994;7.126;2022-08-25T09:33:36;1.85;;;1.75;;
9117;SDS011;4594;50.994;7.126;2022-08-25T09:36:02;1.90;;;1.80;;
9117;SDS011;4594;50.994;7.126;2022-08-25T09:38:29;2.17;;;2.08;;
9117;SDS011;4594;50.994;7.126;2022-08-25T09:40:57;2.75;;;1.60;;
9117;SDS011;4594;50.994;7.126;2022-08-25T09:48:50;1.67;;;1.65;;
9117;SDS011;4594;50.994;7.126;2022-08-25T09:51:36;1.67;;;1.60;;
9117;SDS011;4594;50.994;7.126;2022-08-25T09:59:33;2.35;;;1.70;;
9117;SDS011;4594;50.994;7.126;2022-08-25T10:04:44;2.28;;;1.40;;
9117;SDS011;4594;50.994;7.126;2022-08-25T10:10:17;1.40;;;1.40;;
9117;SDS011;4594;50.994;7.126;2022-08-25T10:12:56;1.60;;;1.60;;
9117;SDS011;4594;50.994;7.126;2022-08-25T10:17:55;1.33;;;1.33;;
9117;SDS011;4594;50.994;7.126;2022-08-25T10:20:41;1.65;;;1.65;;
9117;SDS011;4594;50.994;7.126;2022-08-25T10:23:12;1.80;;;1.40;;
9117;SDS011;4594;50.994;7.126;2022-08-25T10:25:40;1.88;;;1.58;;
9117;SDS011;4594;50.994;7.126;2022-08-25T10:31:28;2.00;;;1.90;;
9117;SDS011;4594;50.994;7.126;2022-08-25T10:34:16;1.65;;;1.55;;
9117;SDS011;4594;50.994;7.126;2022-08-25T10:45:37;1.58;;;1.52;;
9117;SDS011;4594;50.994;7.126;2022-08-25T10:53:54;1.52;;;1.45;;
9117;SDS011;4594;50.994;7.126;2022-08-25T10:56:40;5.40;;;1.50;;
9117;SDS011;4594;50.994;7.126;2022-08-25T11:07:35;1.45;;;1.42;;
9117;SDS011;4594;50.994;7.126;2022-08-25T11:10:07;1.85;;;1.50;;
9117;SDS011;4594;50.994;7.126;2022-08-25T11:12:44;1.52;;;1.50;;
9117;SDS011;4594;50.994;7.126;2022-08-25T11:15:19;1.48;;;1.48;;
9117;SDS011;4594;50.994;7.126;2022-08-25T11:18:02;2.00;;;1.90;;
9117;SDS011;4594;50.994;7.126;2022-08-25T11:20:39;1.52;;;1.50;;
9117;SDS011;4594;50.994;7.126;2022-08-25T11:23:14;1.58;;;1.52;;
9117;SDS011;4594;50.994;7.126;2022-08-25T11:26:10;2.28;;;2.08;;
9117;SDS011;4594;50.994;7.126;2022-08-25T11:28:55;1.85;;;1.70;;
9117;SDS011;4594;50.994;7.126;2022-08-25T11:31:50;2.00;;;1.77;;
9117;SDS011;4594;50.994;7.126;2022-08-25T11:34:17;1.83;;;1.73;;
9117;SDS011;4594;50.994;7.126;2022-08-25T11:36:57;2.67;;;2.28;;
9117;SDS011;4594;50.994;7.126;2022-08-25T11:39:51;3.33;;;1.80;;
9117;SDS011;4594;50.994;7.126;2022-08-25T11:43:11;2.05;;;1.95;;
9117;SDS011;4594;50.994;7.126;2022-08-25T11:46:24;1.98;;;1.75;;
9117;SDS011;4594;50.994;7.126;2022-08-25T11:54:56;1.70;;;1.60;;
9117;SDS011;4594;50.994;7.126;2022-08-25T11:58:20;2.23;;;2.13;;
9117;SDS011;4594;50.994;7.126;2022-08-25T12:00:56;1.90;;;1.90;;
9117;SDS011;4594;50.994;7.126;2022-08-25T12:08:47;2.93;;;2.30;;
9117;SDS011;4594;50.994;7.126;2022-08-25T12:14:16;2.27;;;2.17;;
9117;SDS011;4594;50.994;7.126;2022-08-25T12:16:59;2.63;;;2.43;;
9117;SDS011;4594;50.994;7.126;2022-08-25T12:19:51;5.47;;;2.27;;
9117;SDS011;4594;50.994;7.126;2022-08-25T12:24:51;3.60;;;2.73;;
9117;SDS011;4594;50.994;7.126;2022-08-25T12:30:32;2.47;;;2.13;;
9117;SDS011;4594;50.994;7.126;2022-08-25T12:33:27;4.73;;;2.80;;
9117;SDS011;4594;50.994;7.126;2022-08-25T12:36:39;2.23;;;2.13;;
9117;SDS011;4594;50.994;7.126;2022-08-25T12:39:27;3.80;;;2.47;;
9117;SDS011;4594;50.994;7.126;2022-08-25T12:42:02;2.03;;;1.93;;
9117;SDS011;4594;50.994;7.126;2022-08-25T12:44:44;2.57;;;2.27;;
9117;SDS011;4594;50.994;7.126;2022-08-25T12:47:33;1.97;;;1.83;;
9117;SDS011;4594;50.994;7.126;2022-08-25T12:53:09;2.20;;;2.10;;
9117;SDS011;4594;50.994;7.126;2022-08-25T12:55:51;2.00;;;1.90;;
9117;SDS011;4594;50.994;7.126;2022-08-25T12:58:27;2.23;;;2.13;;
9117;SDS011;4594;50.994;7.126;2022-08-25T13:10:33;3.13;;;2.27;;
9117;SDS011;4594;50.994;7.126;2022-08-25T13:13:30;2.00;;;1.90;;
9117;SDS011;4594;50.994;7.126;2022-08-25T13:16:30;5.20;;;2.20;;
9117;SDS011;4594;50.994;7.126;2022-08-25T13:18:57;2.40;;;2.30;;
9117;SDS011;4594;50.994;7.126;2022-08-25T13:21:38;3.13;;;1.93;;
9117;SDS011;4594;50.994;7.126;2022-08-25T13:26:49;2.20;;;2.10;;
9117;SDS011;4594;50.994;7.126;2022-08-25T13:29:26;2.20;;;2.00;;
9117;SDS011;4594;50.994;7.126;2022-08-25T13:32:01;2.10;;;1.90;;
9117;SDS011;4594;50.994;7.126;2022-08-25T13:34:48;2.10;;;2.00;;
9117;SDS011;4594;50.994;7.126;2022-08-25T13:37:18;2.27;;;2.17;;
9117;SDS011;4594;50.994;7.126;2022-08-25T13:42:58;2.13;;;1.93;;
9117;SDS011;4594;50.994;7.126;2022-08-25T13:45:30;1.80;;;1.73;;
9117;SDS011;4594;50.994;7.126;2022-08-25T13:48:01;2.20;;;2.10;;
9117;SDS011;4594;50.994;7.126;2022-08-25T13:50:32;2.30;;;2.20;;
9117;SDS011;4594;50.994;7.126;2022-08-25T13:55:49;2.03;;;1.93;;
9117;SDS011;4594;50.994;7.126;2022-08-25T13:58:28;2.30;;;2.20;;
9117;SDS011;4594;50.994;7.126;2022-08-25T14:01:02;1.97;;;1.90;;
9117;SDS011;4594;50.994;7.126;2022-08-25T14:03:42;3.43;;;2.03;;
9117;SDS011;4594;50.994;7.126;2022-08-25T14:08:46;2.37;;;1.93;;
9117;SDS011;4594;50.994;7.126;2022-08-25T14:11:40;1.80;;;1.70;;
9117;SDS011;4594;50.994;7.126;2022-08-25T14:16:49;2.03;;;1.93;;
9117;SDS011;4594;50.994;7.126;2022-08-25T14:19:22;2.20;;;2.10;;
9117;SDS011;4594;50.994;7.126;2022-08-25T14:21:49;2.60;;;2.27;;
9117;SDS011;4594;50.994;7.126;2022-08-25T14:24:17;5.47;;;2.17;;
9117;SDS011;4594;50.994;7.126;2022-08-25T14:26:47;1.83;;;1.73;;
9117;SDS011;4594;50.994;7.126;2022-08-25T14:29:14;1.97;;;1.87;;
9117;SDS011;4594;50.994;7.126;2022-08-25T14:31:41;2.70;;;2.30;;
9117;SDS011;4594;50.994;7.126;2022-08-25T14:34:11;2.00;;;1.90;;
9117;SDS011;4594;50.994;7.126;2022-08-25T14:36:41;2.10;;;1.87;;
9117;SDS011;4594;50.994;7.126;2022-08-25T14:39:08;2.03;;;1.93;;
9117;SDS011;4594;50.994;7.126;2022-08-25T14:41:36;1.90;;;1.80;;
9117;SDS011;4594;50.994;7.126;2022-08-25T14:44:05;2.03;;;1.93;;
9117;SDS011;4594;50.994;7.126;2022-08-25T14:46:45;7.83;;;2.00;;
9117;SDS011;4594;50.994;7.126;2022-08-25T14:49:23;3.20;;;1.70;;
9117;SDS011;4594;50.994;7.126;2022-08-25T14:51:57;2.00;;;1.90;;
9117;SDS011;4594;50.994;7.126;2022-08-25T14:54:32;3.90;;;2.03;;
9117;SDS011;4594;50.994;7.126;2022-08-25T14:56:59;1.90;;;1.90;;
9117;SDS011;4594;50.994;7.126;2022-08-25T14:59:25;3.23;;;2.00;;
9117;SDS011;4594;50.994;7.126;2022-08-25T15:01:51;3.73;;;2.40;;
9117;SDS011;4594;50.994;7.126;2022-08-25T15:04:21;2.57;;;2.40;;
9117;SDS011;4594;50.994;7.126;2022-08-25T15:06:53;2.73;;;2.40;;
9117;SDS011;4594;50.994;7.126;2022-08-25T15:09:24;3.00;;;2.43;;
9117;SDS011;4594;50.994;7.126;2022-08-25T15:11:53;2.53;;;2.43;;
9117;SDS011;4594;50.994;7.126;2022-08-25T15:14:21;2.50;;;2.40;;
9117;SDS011;4594;50.994;7.126;2022-08-25T15:16:53;2.70;;;2.27;;
9117;SDS011;4594;50.994;7.126;2022-08-25T15:19:23;4.80;;;2.20;;
9117;SDS011;4594;50.994;7.126;2022-08-25T15:21:51;1.93;;;1.83;;
9117;SDS011;4594;50.994;7.126;2022-08-25T15:24:17;2.13;;;1.93;;
9117;SDS011;4594;50.994;7.126;2022-08-25T15:26:50;2.00;;;1.90;;
9117;SDS011;4594;50.994;7.126;2022-08-25T15:29:20;2.00;;;1.90;;
9117;SDS011;4594;50.994;7.126;2022-08-25T15:31:47;1.80;;;1.80;;
9117;SDS011;4594;50.994;7.126;2022-08-25T15:34:13;4.27;;;1.80;;
9117;SDS011;4594;50.994;7.126;2022-08-25T15:36:39;2.00;;;1.90;;
9117;SDS011;4594;50.994;7.126;2022-08-25T15:39:06;2.40;;;1.70;;
9117;SDS011;4594;50.994;7.126;2022-08-25T15:41:33;5.90;;;1.83;;
9117;SDS011;4594;50.994;7.126;2022-08-25T15:44:00;2.00;;;1.90;;
9117;SDS011;4594;50.994;7.126;2022-08-25T15:46:27;2.07;;;1.97;;
9117;SDS011;4594;50.994;7.126;2022-08-25T15:48:54;5.07;;;2.20;;
9117;SDS011;4594;50.994;7.126;2022-08-25T15:51:22;1.93;;;1.83;;
9117;SDS011;4594;50.994;7.126;2022-08-25T15:53:48;1.80;;;1.60;;
9117;SDS011;4594;50.994;7.126;2022-08-25T15:56:13;1.80;;;1.77;;
9117;SDS011;4594;50.994;7.126;2022-08-25T15:58:42;4.00;;;1.90;;
9117;SDS011;4594;50.994;7.126;2022-08-25T16:01:18;1.87;;;1.77;;
9117;SDS011;4594;50.994;7.126;2022-08-25T16:03:50;1.63;;;1.53;;
9117;SDS011;4594;50.994;7.126;2022-08-25T16:06:16;2.03;;;1.73;;
9117;SDS011;4594;50.994;7.126;2022-08-25T16:08:43;1.67;;;1.57;;
9117;SDS011;4594;50.994;7.126;2022-08-25T16:11:22;2.27;;;2.17;;
9117;SDS011;4594;50.994;7.126;2022-08-25T16:13:50;2.00;;;1.90;;
9117;SDS011;4594;50.994;7.126;2022-08-25T16:16:18;1.90;;;1.80;;
9117;SDS011;4594;50.994;7.126;2022-08-25T16:18:47;1.80;;;1.70;;
9117;SDS011;4594;50.994;7.126;2022-08-25T16:21:15;2.17;;;1.67;;
9117;SDS011;4594;50.994;7.126;2022-08-25T16:23:45;1.70;;;1.70;;
9117;SDS011;4594;50.994;7.126;2022-08-25T16:26:12;1.90;;;1.80;;
9117;SDS011;4594;50.994;7.126;2022-08-25T16:28:39;2.37;;;1.70;;
9117;SDS011;4594;50.994;7.126;2022-08-25T16:31:10;1.70;;;1.60;;
9117;SDS011;4594;50.994;7.126;2022-08-25T16:33:40;2.00;;;1.90;;
9117;SDS011;4594;50.994;7.126;2022-08-25T16:36:18;1.90;;;1.80;;
9117;SDS011;4594;50.994;7.126;2022-08-25T16:38:49;2.00;;;1.90;;
9117;SDS011;4594;50.994;7.126;2022-08-25T16:41:17;1.93;;;1.83;;
9117;SDS011;4594;50.994;7.126;2022-08-25T16:43:57;2.00;;;1.90;;
9117;SDS011;4594;50.994;7.126;2022-08-25T16:46:26;2.20;;;1.93;;
9117;SDS011;4594;50.994;7.126;2022-08-25T16:48:52;1.83;;;1.77;;
9117;SDS011;4594;50.994;7.126;2022-08-25T16:51:19;1.73;;;1.67;;
9117;SDS011;4594;50.994;7.126;2022-08-25T16:53:46;1.90;;;1.80;;
9117;SDS011;4594;50.994;7.126;2022-08-25T16:56:32;2.90;;;2.03;;
9117;SDS011;4594;50.994;7.126;2022-08-25T16:59:00;2.07;;;1.87;;
9117;SDS011;4594;50.994;7.126;2022-08-25T17:01:28;1.67;;;1.67;;
9117;SDS011;4594;50.994;7.126;2022-08-25T17:03:58;1.90;;;1.80;;
9117;SDS011;4594;50.994;7.126;2022-08-25T17:06:25;2.93;;;1.57;;
9117;SDS011;4594;50.994;7.126;2022-08-25T17:08:54;1.70;;;1.60;;
9117;SDS011;4594;50.994;7.126;2022-08-25T17:11:21;4.20;;;1.90;;
9117;SDS011;4594;50.994;7.126;2022-08-25T17:13:52;1.47;;;1.47;;
9117;SDS011;4594;50.994;7.126;2022-08-25T17:16:22;2.43;;;2.23;;
9117;SDS011;4594;50.994;7.126;2022-08-25T17:18:56;2.20;;;2.10;;
9117;SDS011;4594;50.994;7.126;2022-08-25T17:21:23;1.80;;;1.70;;
9117;SDS011;4594;50.994;7.126;2022-08-25T17:23:51;1.70;;;1.70;;
9117;SDS011;4594;50.994;7.126;2022-08-25T17:26:19;2.20;;;2.10;;